PWSweather.com
Personal Weather Stations
Station Observations
01979
Ravne Pri CerknemSI 5282

Ravne Pri CerknemSI 5282

Lat: 46.1213916, Lon: 13.952774299999987

Elevation: 2244.094488

Station Type: Techo Line WS2307

www.vremenska.postaja.andre.si/

High Low Average
Temperature 40.8°F4.9°C 29.3°F-1.5°C 34.9°F1.6°C
Dew Point 31.8°F-0.1°C 26.2°F-3.2°C 29.7°F-1.3°C
Winds 8.1 mph 13.0 kmh Calm Calm 1.0 mph E1.6 kmh E
Wind Gusts 12.3 mph19.8 kmh -- 3.0 mph4.8 kmh
Humidity 89% 70% 82%
Pressure 30.38 in1028.8 mb 30.07 in1018.3 mb -
Precipitation 0.00 in0.0 mm - -
Hour Temp Dew Point Humidity Winds Wind Gusts Pressure Precip Precip Rate Daily Precip Total
12:00 AM 32.7°F0.4°C 27.2°F-2.7°C 80% 1.2 mph ENE1.9 kmh ENE 5.6 mph9.0 kmh 30.37 in1028.4 mb 0.00 in0.0 mm 0.00 in0.0 mm 0.00 in0.0 mm
12:10 AM 32.2°F0.1°C 26.7°F-2.9°C 80% 0.2 mph ESE0.3 kmh ESE 1.1 mph1.8 kmh 30.37 in1028.4 mb 0.00 in0.0 mm 0.00 in0.0 mm 0.00 in0.0 mm
12:20 AM 32.2°F0.1°C 27.0°F-2.8°C 81% 2.3 mph ESE3.7 kmh ESE 10.5 mph16.9 kmh 30.37 in1028.4 mb 0.00 in0.0 mm 0.00 in0.0 mm 0.00 in0.0 mm
12:30 AM 32.7°F0.4°C 27.2°F-2.7°C 80% 4.6 mph E7.4 kmh E 10.5 mph16.9 kmh 30.37 in1028.4 mb 0.00 in0.0 mm 0.00 in0.0 mm 0.00 in0.0 mm
12:40 AM 32.2°F0.1°C 27.0°F-2.8°C 81% Calm Calm -- 30.37 in1028.4 mb 0.00 in0.0 mm 0.00 in0.0 mm 0.00 in0.0 mm
12:50 AM 32.2°F0.1°C 27.0°F-2.8°C 81% 1.1 mph E1.8 kmh E 4.0 mph6.4 kmh 30.37 in1028.4 mb 0.00 in0.0 mm 0.00 in0.0 mm 0.00 in0.0 mm
01:00 AM 31.8°F-0.1°C 26.7°F-2.9°C 81% 0.5 mph SSW0.8 kmh SSW 3.1 mph5.0 kmh 30.37 in1028.4 mb 0.00 in0.0 mm 0.00 in0.0 mm 0.00 in0.0 mm
01:10 AM 31.8°F-0.1°C 27.0°F-2.8°C 82% 3.8 mph SSE6.1 kmh SSE 6.3 mph10.1 kmh 30.37 in1028.4 mb 0.00 in0.0 mm 0.00 in0.0 mm 0.00 in0.0 mm
01:20 AM 32.2°F0.1°C 27.6°F-2.4°C 83% 0.6 mph E1.0 kmh E 1.3 mph2.1 kmh 30.38 in1028.8 mb 0.00 in0.0 mm 0.00 in0.0 mm 0.00 in0.0 mm
01:30 AM 32.2°F0.1°C 27.9°F-2.3°C 84% 1.7 mph SE2.7 kmh SE 3.4 mph5.5 kmh 30.38 in1028.8 mb 0.00 in0.0 mm 0.00 in0.0 mm 0.00 in0.0 mm
01:40 AM 32.2°F0.1°C 28.2°F-2.1°C 85% 2.0 mph SE3.2 kmh SE 7.8 mph12.6 kmh 30.37 in1028.4 mb 0.00 in0.0 mm 0.00 in0.0 mm 0.00 in0.0 mm
01:50 AM 31.6°F-0.2°C 27.9°F-2.3°C 86% Calm Calm -- 30.38 in1028.8 mb 0.00 in0.0 mm 0.00 in0.0 mm 0.00 in0.0 mm
02:00 AM 32.2°F0.1°C 28.7°F-1.8°C 87% 4.3 mph E6.9 kmh E 9.4 mph15.1 kmh 30.37 in1028.4 mb 0.00 in0.0 mm 0.00 in0.0 mm 0.00 in0.0 mm
02:02 AM 32.2°F0.1°C 28.2°F-2.1°C 85% 1.7 mph E2.7 kmh E 9.4 mph15.1 kmh 30.38 in1028.8 mb 0.00 in0.0 mm 0.00 in0.0 mm 0.00 in0.0 mm
02:10 AM 33.3°F0.7°C 29.2°F-1.6°C 85% 8.1 mph E13.0 kmh E 10.7 mph17.2 kmh 30.37 in1028.4 mb 0.00 in0.0 mm 0.00 in0.0 mm 0.00 in0.0 mm
02:20 AM 33.4°F0.8°C 29.1°F-1.6°C 84% 7.9 mph E12.7 kmh E 11.9 mph19.2 kmh 30.36 in1028.1 mb 0.00 in0.0 mm 0.00 in0.0 mm 0.00 in0.0 mm
02:30 AM 33.6°F0.9°C 28.7°F-1.8°C 82% 5.3 mph E8.5 kmh E 8.9 mph14.3 kmh 30.35 in1027.8 mb 0.00 in0.0 mm 0.00 in0.0 mm 0.00 in0.0 mm
02:40 AM 33.6°F0.9°C 28.7°F-1.8°C 82% 5.8 mph ESE9.3 kmh ESE 8.9 mph14.3 kmh 30.35 in1027.8 mb 0.00 in0.0 mm 0.00 in0.0 mm 0.00 in0.0 mm
02:50 AM 33.1°F0.6°C 28.2°F-2.1°C 82% 2.2 mph S3.5 kmh S 4.7 mph7.6 kmh 30.35 in1027.8 mb 0.00 in0.0 mm 0.00 in0.0 mm 0.00 in0.0 mm
03:00 AM 32.9°F0.5°C 28.3°F-2.1°C 83% 3.1 mph S5.0 kmh S 5.8 mph9.3 kmh 30.35 in1027.8 mb 0.00 in0.0 mm 0.00 in0.0 mm 0.00 in0.0 mm
03:10 AM 32.2°F0.1°C 27.9°F-2.3°C 84% 2.4 mph S3.9 kmh S 5.6 mph9.0 kmh 30.35 in1027.8 mb 0.00 in0.0 mm 0.00 in0.0 mm 0.00 in0.0 mm
03:20 AM 33.3°F0.7°C 28.7°F-1.8°C 83% 1.0 mph ESE1.6 kmh ESE 4.9 mph7.9 kmh 30.34 in1027.4 mb 0.00 in0.0 mm 0.00 in0.0 mm 0.00 in0.0 mm
03:30 AM 33.4°F0.8°C 28.8°F-1.8°C 83% 1.2 mph ENE1.9 kmh ENE 6.0 mph9.7 kmh 30.34 in1027.4 mb 0.00 in0.0 mm 0.00 in0.0 mm 0.00 in0.0 mm
03:40 AM 32.9°F0.5°C 28.3°F-2.1°C 83% 6.3 mph E10.1 kmh E 10.1 mph16.3 kmh 30.33 in1027.1 mb 0.00 in0.0 mm 0.00 in0.0 mm 0.00 in0.0 mm
03:50 AM 32.5°F0.3°C 28.2°F-2.1°C 84% 2.2 mph E3.5 kmh E 5.1 mph8.2 kmh 30.33 in1027.1 mb 0.00 in0.0 mm 0.00 in0.0 mm 0.00 in0.0 mm
04:00 AM 32.7°F0.4°C 28.7°F-1.8°C 85% 2.1 mph ENE3.4 kmh ENE 4.9 mph7.9 kmh 30.33 in1027.1 mb 0.00 in0.0 mm 0.00 in0.0 mm 0.00 in0.0 mm
04:10 AM 32.5°F0.3°C 28.2°F-2.1°C 84% 1.0 mph SE1.6 kmh SE 4.5 mph7.2 kmh 30.33 in1027.1 mb 0.00 in0.0 mm 0.00 in0.0 mm 0.00 in0.0 mm
04:20 AM 32.2°F0.1°C 28.2°F-2.1°C 85% Calm Calm -- 30.32 in1026.8 mb 0.00 in0.0 mm 0.00 in0.0 mm 0.00 in0.0 mm
04:30 AM 31.8°F-0.1°C 27.8°F-2.3°C 85% Calm Calm -- 30.32 in1026.8 mb 0.00 in0.0 mm 0.00 in0.0 mm 0.00 in0.0 mm
04:40 AM 31.6°F-0.2°C 27.9°F-2.3°C 86% Calm Calm -- 30.32 in1026.8 mb 0.00 in0.0 mm 0.00 in0.0 mm 0.00 in0.0 mm
04:50 AM 31.3°F-0.4°C 27.6°F-2.4°C 86% Calm Calm -- 30.31 in1026.4 mb 0.00 in0.0 mm 0.00 in0.0 mm 0.00 in0.0 mm
05:00 AM 31.6°F-0.2°C 27.9°F-2.3°C 86% Calm Calm -- 30.31 in1026.4 mb 0.00 in0.0 mm 0.00 in0.0 mm 0.00 in0.0 mm
05:10 AM 31.8°F-0.1°C 28.1°F-2.2°C 86% Calm Calm -- 30.31 in1026.4 mb 0.00 in0.0 mm 0.00 in0.0 mm 0.00 in0.0 mm
05:20 AM 31.8°F-0.1°C 28.1°F-2.2°C 86% 0.3 mph E0.5 kmh E 2.2 mph3.5 kmh 30.30 in1026.1 mb 0.00 in0.0 mm 0.00 in0.0 mm 0.00 in0.0 mm
05:30 AM 31.6°F-0.2°C 27.9°F-2.3°C 86% 0.7 mph E1.1 kmh E 2.2 mph3.5 kmh 30.30 in1026.1 mb 0.00 in0.0 mm 0.00 in0.0 mm 0.00 in0.0 mm
05:40 AM 31.3°F-0.4°C 27.6°F-2.4°C 86% Calm Calm -- 30.30 in1026.1 mb 0.00 in0.0 mm 0.00 in0.0 mm 0.00 in0.0 mm
05:50 AM 30.7°F-0.7°C 27.0°F-2.8°C 86% Calm Calm -- 30.30 in1026.1 mb 0.00 in0.0 mm 0.00 in0.0 mm 0.00 in0.0 mm
06:00 AM 30.4°F-0.9°C 27.0°F-2.8°C 87% Calm Calm -- 30.30 in1026.1 mb 0.00 in0.0 mm 0.00 in0.0 mm 0.00 in0.0 mm
06:10 AM 30.6°F-0.8°C 27.2°F-2.7°C 87% Calm Calm -- 30.29 in1025.7 mb 0.00 in0.0 mm 0.00 in0.0 mm 0.00 in0.0 mm
06:20 AM 30.7°F-0.7°C 27.3°F-2.6°C 87% Calm Calm -- 30.28 in1025.4 mb 0.00 in0.0 mm 0.00 in0.0 mm 0.00 in0.0 mm
06:30 AM 30.7°F-0.7°C 27.3°F-2.6°C 87% Calm Calm -- 30.28 in1025.4 mb 0.00 in0.0 mm 0.00 in0.0 mm 0.00 in0.0 mm
06:40 AM 30.7°F-0.7°C 27.3°F-2.6°C 87% Calm Calm -- 30.28 in1025.4 mb 0.00 in0.0 mm 0.00 in0.0 mm 0.00 in0.0 mm
06:50 AM 30.0°F-1.1°C 26.9°F-2.8°C 88% Calm Calm -- 30.28 in1025.4 mb 0.00 in0.0 mm 0.00 in0.0 mm 0.00 in0.0 mm
07:00 AM 30.4°F-0.9°C 27.3°F-2.6°C 88% Calm Calm -- 30.27 in1025.1 mb 0.00 in0.0 mm 0.00 in0.0 mm 0.00 in0.0 mm
07:10 AM 29.5°F-1.4°C 26.4°F-3.1°C 88% Calm Calm -- 30.27 in1025.1 mb 0.00 in0.0 mm 0.00 in0.0 mm 0.00 in0.0 mm
07:20 AM 29.8°F-1.2°C 26.7°F-2.9°C 88% Calm Calm -- 30.27 in1025.1 mb 0.00 in0.0 mm 0.00 in0.0 mm 0.00 in0.0 mm
07:30 AM 30.0°F-1.1°C 26.9°F-2.8°C 88% Calm Calm -- 30.27 in1025.1 mb 0.00 in0.0 mm 0.00 in0.0 mm 0.00 in0.0 mm
07:40 AM 30.4°F-0.9°C 27.3°F-2.6°C 88% Calm Calm -- 30.27 in1025.1 mb 0.00 in0.0 mm 0.00 in0.0 mm 0.00 in0.0 mm
07:50 AM 29.8°F-1.2°C 26.7°F-2.9°C 88% Calm Calm -- 30.27 in1025.1 mb 0.00 in0.0 mm 0.00 in0.0 mm 0.00 in0.0 mm
08:00 AM 29.3°F-1.5°C 26.2°F-3.2°C 88% Calm Calm -- 30.27 in1025.1 mb 0.00 in0.0 mm 0.00 in0.0 mm 0.00 in0.0 mm
08:10 AM 29.8°F-1.2°C 27.0°F-2.8°C 89% Calm Calm -- 30.26 in1024.7 mb 0.00 in0.0 mm 0.00 in0.0 mm 0.00 in0.0 mm
08:20 AM 31.6°F-0.2°C 28.2°F-2.1°C 87% Calm Calm -- 30.26 in1024.7 mb 0.00 in0.0 mm 0.00 in0.0 mm 0.00 in0.0 mm
08:30 AM 32.2°F0.1°C 27.9°F-2.3°C 84% Calm Calm -- 30.26 in1024.7 mb 0.00 in0.0 mm 0.00 in0.0 mm 0.00 in0.0 mm
08:40 AM 33.6°F0.9°C 28.4°F-2.0°C 81% Calm Calm -- 30.26 in1024.7 mb 0.00 in0.0 mm 0.00 in0.0 mm 0.00 in0.0 mm
08:50 AM 32.5°F0.3°C 28.0°F-2.2°C 83% Calm Calm -- 30.25 in1024.4 mb 0.00 in0.0 mm 0.00 in0.0 mm 0.00 in0.0 mm
09:00 AM 32.5°F0.3°C 28.2°F-2.1°C 84% Calm Calm -- 30.25 in1024.4 mb 0.00 in0.0 mm 0.00 in0.0 mm 0.00 in0.0 mm
09:10 AM 33.1°F0.6°C 28.8°F-1.8°C 84% Calm Calm -- 30.25 in1024.4 mb 0.00 in0.0 mm 0.00 in0.0 mm 0.00 in0.0 mm
09:20 AM 34.0°F1.1°C 29.1°F-1.6°C 82% Calm Calm -- 30.25 in1024.4 mb 0.00 in0.0 mm 0.00 in0.0 mm 0.00 in0.0 mm
09:30 AM 35.4°F1.9°C 29.9°F-1.2°C 80% Calm Calm -- 30.25 in1024.4 mb 0.00 in0.0 mm 0.00 in0.0 mm 0.00 in0.0 mm
09:40 AM 36.3°F2.4°C 29.8°F-1.2°C 77% 0.2 mph SSE0.3 kmh SSE 2.0 mph3.2 kmh 30.24 in1024.0 mb 0.00 in0.0 mm 0.00 in0.0 mm 0.00 in0.0 mm
09:50 AM 35.2°F1.8°C 29.7°F-1.3°C 80% 0.6 mph SSE1.0 kmh SSE 2.0 mph3.2 kmh 30.24 in1024.0 mb 0.00 in0.0 mm 0.00 in0.0 mm 0.00 in0.0 mm
10:00 AM 36.1°F2.3°C 29.9°F-1.2°C 78% Calm Calm -- 30.24 in1024.0 mb 0.00 in0.0 mm 0.00 in0.0 mm 0.00 in0.0 mm
10:10 AM 36.3°F2.4°C 30.1°F-1.1°C 78% Calm Calm -- 30.24 in1024.0 mb 0.00 in0.0 mm 0.00 in0.0 mm 0.00 in0.0 mm
10:20 AM 36.7°F2.6°C 30.5°F-0.8°C 78% 2.7 mph S4.3 kmh S 4.0 mph6.4 kmh 30.24 in1024.0 mb 0.00 in0.0 mm 0.00 in0.0 mm 0.00 in0.0 mm
10:30 AM 37.2°F2.9°C 30.7°F-0.7°C 77% Calm Calm -- 30.23 in1023.7 mb 0.00 in0.0 mm 0.00 in0.0 mm 0.00 in0.0 mm
10:40 AM 37.9°F3.3°C 31.0°F-0.6°C 76% 1.1 mph S1.8 kmh S 3.6 mph5.8 kmh 30.23 in1023.7 mb 0.00 in0.0 mm 0.00 in0.0 mm 0.00 in0.0 mm
10:50 AM 37.2°F2.9°C 30.7°F-0.7°C 77% 5.9 mph S9.5 kmh S 11.4 mph18.3 kmh 30.22 in1023.4 mb 0.00 in0.0 mm 0.00 in0.0 mm 0.00 in0.0 mm
11:00 AM 37.2°F2.9°C 30.7°F-0.7°C 77% 7.9 mph S12.7 kmh S 11.4 mph18.3 kmh 30.22 in1023.4 mb 0.00 in0.0 mm 0.00 in0.0 mm 0.00 in0.0 mm
11:10 AM 37.8°F3.2°C 31.2°F-0.4°C 77% 5.0 mph S8.0 kmh S 8.3 mph13.4 kmh 30.22 in1023.4 mb 0.00 in0.0 mm 0.00 in0.0 mm 0.00 in0.0 mm
11:20 AM 38.3°F3.5°C 31.7°F-0.2°C 77% 5.0 mph S8.0 kmh S 7.6 mph12.2 kmh 30.22 in1023.4 mb 0.00 in0.0 mm 0.00 in0.0 mm 0.00 in0.0 mm
11:30 AM 38.5°F3.6°C 31.6°F-0.2°C 76% 3.8 mph SSE6.1 kmh SSE 7.2 mph11.6 kmh 30.21 in1023.0 mb 0.00 in0.0 mm 0.00 in0.0 mm 0.00 in0.0 mm
11:40 AM 38.8°F3.8°C 31.6°F-0.2°C 75% 3.5 mph SSE5.6 kmh SSE 7.2 mph11.6 kmh 30.21 in1023.0 mb 0.00 in0.0 mm 0.00 in0.0 mm 0.00 in0.0 mm
11:50 AM 38.5°F3.6°C 31.2°F-0.4°C 75% 5.7 mph S9.2 kmh S 12.3 mph19.8 kmh 30.20 in1022.7 mb 0.00 in0.0 mm 0.00 in0.0 mm 0.00 in0.0 mm
12:00 PM 38.8°F3.8°C 31.3°F-0.4°C 74% 6.5 mph SSE10.5 kmh SSE 7.2 mph11.6 kmh 30.20 in1022.7 mb 0.00 in0.0 mm 0.00 in0.0 mm 0.00 in0.0 mm
12:10 PM 39.0°F3.9°C 31.4°F-0.3°C 74% 4.3 mph S6.9 kmh S 7.6 mph12.2 kmh 30.20 in1022.7 mb 0.00 in0.0 mm 0.00 in0.0 mm 0.00 in0.0 mm
12:20 PM 39.4°F4.1°C 31.4°F-0.3°C 73% 2.8 mph S4.5 kmh S 5.6 mph9.0 kmh 30.19 in1022.4 mb 0.00 in0.0 mm 0.00 in0.0 mm 0.00 in0.0 mm
12:30 PM 39.6°F4.2°C 31.6°F-0.2°C 73% 3.4 mph S5.5 kmh S 3.8 mph6.1 kmh 30.19 in1022.4 mb 0.00 in0.0 mm 0.00 in0.0 mm 0.00 in0.0 mm
12:40 PM 37.9°F3.3°C 30.7°F-0.7°C 75% 6.6 mph S10.6 kmh S 9.2 mph14.8 kmh 30.18 in1022.0 mb 0.00 in0.0 mm 0.00 in0.0 mm 0.00 in0.0 mm
12:50 PM 39.0°F3.9°C 31.4°F-0.3°C 74% 3.9 mph SSE6.3 kmh SSE 10.7 mph17.2 kmh 30.17 in1021.7 mb 0.00 in0.0 mm 0.00 in0.0 mm 0.00 in0.0 mm
01:00 PM 39.0°F3.9°C 31.1°F-0.5°C 73% 6.3 mph S10.1 kmh S 6.7 mph10.8 kmh 30.17 in1021.7 mb 0.00 in0.0 mm 0.00 in0.0 mm 0.00 in0.0 mm
01:10 PM 38.5°F3.6°C 30.9°F-0.6°C 74% 2.9 mph SSE4.7 kmh SSE 6.5 mph10.5 kmh 30.17 in1021.7 mb 0.00 in0.0 mm 0.00 in0.0 mm 0.00 in0.0 mm
01:20 PM 38.8°F3.8°C 31.3°F-0.4°C 74% 2.7 mph S4.3 kmh S 6.5 mph10.5 kmh 30.16 in1021.3 mb 0.00 in0.0 mm 0.00 in0.0 mm 0.00 in0.0 mm
01:30 PM 38.8°F3.8°C 30.9°F-0.6°C 73% 2.4 mph S3.9 kmh S 3.1 mph5.0 kmh 30.16 in1021.3 mb 0.00 in0.0 mm 0.00 in0.0 mm 0.00 in0.0 mm
01:40 PM 38.8°F3.8°C 30.9°F-0.6°C 73% 1.8 mph S2.9 kmh S 3.6 mph5.8 kmh 30.15 in1021.0 mb 0.00 in0.0 mm 0.00 in0.0 mm 0.00 in0.0 mm
01:50 PM 39.0°F3.9°C 31.4°F-0.3°C 74% 3.2 mph SSW5.1 kmh SSW 6.3 mph10.1 kmh 30.14 in1020.7 mb 0.00 in0.0 mm 0.00 in0.0 mm 0.00 in0.0 mm
02:00 PM 39.7°F4.3°C 31.8°F-0.1°C 73% Calm Calm -- 30.14 in1020.7 mb 0.00 in0.0 mm 0.00 in0.0 mm 0.00 in0.0 mm
02:10 PM 39.9°F4.4°C 31.3°F-0.4°C 71% 3.7 mph S6.0 kmh S 5.8 mph9.3 kmh 30.14 in1020.7 mb 0.00 in0.0 mm 0.00 in0.0 mm 0.00 in0.0 mm
02:20 PM 40.1°F4.5°C 31.4°F-0.3°C 71% 3.0 mph S4.8 kmh S 5.1 mph8.2 kmh 30.13 in1020.3 mb 0.00 in0.0 mm 0.00 in0.0 mm 0.00 in0.0 mm
02:30 PM 39.4°F4.1°C 31.1°F-0.5°C 72% 2.3 mph SSE3.7 kmh SSE 3.1 mph5.0 kmh 30.12 in1020.0 mb 0.00 in0.0 mm 0.00 in0.0 mm 0.00 in0.0 mm
02:40 PM 39.0°F3.9°C 31.1°F-0.5°C 73% 2.8 mph SSE4.5 kmh SSE 5.8 mph9.3 kmh 30.12 in1020.0 mb 0.00 in0.0 mm 0.00 in0.0 mm 0.00 in0.0 mm
02:50 PM 38.8°F3.8°C 30.9°F-0.6°C 73% 0.9 mph SSE1.4 kmh SSE 3.1 mph5.0 kmh 30.11 in1019.6 mb 0.00 in0.0 mm 0.00 in0.0 mm 0.00 in0.0 mm
03:00 PM 39.6°F4.2°C 31.3°F-0.4°C 72% Calm Calm -- 30.12 in1020.0 mb 0.00 in0.0 mm 0.00 in0.0 mm 0.00 in0.0 mm
03:10 PM 40.8°F4.9°C 31.8°F-0.1°C 70% Calm Calm -- 30.11 in1019.6 mb 0.00 in0.0 mm 0.00 in0.0 mm 0.00 in0.0 mm
03:20 PM 39.6°F4.2°C 31.3°F-0.4°C 72% Calm Calm -- 30.11 in1019.6 mb 0.00 in0.0 mm 0.00 in0.0 mm 0.00 in0.0 mm
03:30 PM 39.0°F3.9°C 30.4°F-0.9°C 71% Calm Calm -- 30.11 in1019.6 mb 0.00 in0.0 mm 0.00 in0.0 mm 0.00 in0.0 mm
03:40 PM 38.8°F3.8°C 30.9°F-0.6°C 73% Calm Calm -- 30.11 in1019.6 mb 0.00 in0.0 mm 0.00 in0.0 mm 0.00 in0.0 mm
03:50 PM 38.5°F3.6°C 30.6°F-0.8°C 73% 0.7 mph W1.1 kmh W 2.7 mph4.3 kmh 30.11 in1019.6 mb 0.00 in0.0 mm 0.00 in0.0 mm 0.00 in0.0 mm
04:00 PM 38.5°F3.6°C 30.6°F-0.8°C 73% 1.3 mph WSW2.1 kmh WSW 4.5 mph7.2 kmh 30.11 in1019.6 mb 0.00 in0.0 mm 0.00 in0.0 mm 0.00 in0.0 mm
04:10 PM 38.5°F3.6°C 30.2°F-1.0°C 72% 1.4 mph WNW2.3 kmh WNW 2.7 mph4.3 kmh 30.10 in1019.3 mb 0.00 in0.0 mm 0.00 in0.0 mm 0.00 in0.0 mm
04:20 PM 38.3°F3.5°C 30.4°F-0.9°C 73% 1.2 mph W1.9 kmh W 2.7 mph4.3 kmh 30.10 in1019.3 mb 0.00 in0.0 mm 0.00 in0.0 mm 0.00 in0.0 mm
04:30 PM 38.3°F3.5°C 30.7°F-0.7°C 74% 1.6 mph WSW2.6 kmh WSW 6.5 mph10.5 kmh 30.10 in1019.3 mb 0.00 in0.0 mm 0.00 in0.0 mm 0.00 in0.0 mm
04:40 PM 38.1°F3.4°C 30.6°F-0.8°C 74% 1.6 mph SW2.6 kmh SW 6.0 mph9.7 kmh 30.10 in1019.3 mb 0.00 in0.0 mm 0.00 in0.0 mm 0.00 in0.0 mm
04:50 PM 37.8°F3.2°C 30.5°F-0.8°C 75% 0.6 mph SW1.0 kmh SW 6.0 mph9.7 kmh 30.10 in1019.3 mb 0.00 in0.0 mm 0.00 in0.0 mm 0.00 in0.0 mm
05:00 PM 37.2°F2.9°C 30.3°F-0.9°C 76% 0.9 mph SW1.4 kmh SW 2.5 mph4.0 kmh 30.10 in1019.3 mb 0.00 in0.0 mm 0.00 in0.0 mm 0.00 in0.0 mm
05:10 PM 37.0°F2.8°C 30.5°F-0.8°C 77% 1.7 mph SW2.7 kmh SW 5.1 mph8.2 kmh 30.10 in1019.3 mb 0.00 in0.0 mm 0.00 in0.0 mm 0.00 in0.0 mm
05:20 PM 36.7°F2.6°C 30.5°F-0.8°C 78% 0.3 mph SW0.5 kmh SW 4.0 mph6.4 kmh 30.10 in1019.3 mb 0.00 in0.0 mm 0.00 in0.0 mm 0.00 in0.0 mm
05:30 PM 36.7°F2.6°C 30.5°F-0.8°C 78% 1.2 mph NW1.9 kmh NW 5.8 mph9.3 kmh 30.10 in1019.3 mb 0.00 in0.0 mm 0.00 in0.0 mm 0.00 in0.0 mm
05:40 PM 36.5°F2.5°C 30.3°F-0.9°C 78% 1.8 mph NW2.9 kmh NW 7.4 mph11.9 kmh 30.09 in1019.0 mb 0.00 in0.0 mm 0.00 in0.0 mm 0.00 in0.0 mm
05:50 PM 36.3°F2.4°C 30.1°F-1.1°C 78% 0.1 mph SW0.2 kmh SW 2.0 mph3.2 kmh 30.09 in1019.0 mb 0.00 in0.0 mm 0.00 in0.0 mm 0.00 in0.0 mm
06:00 PM 36.3°F2.4°C 30.7°F-0.7°C 80% 2.0 mph NW3.2 kmh NW 6.7 mph10.8 kmh 30.09 in1019.0 mb 0.00 in0.0 mm 0.00 in0.0 mm 0.00 in0.0 mm
06:10 PM 36.1°F2.3°C 30.6°F-0.8°C 80% 0.5 mph S0.8 kmh S 2.5 mph4.0 kmh 30.09 in1019.0 mb 0.00 in0.0 mm 0.00 in0.0 mm 0.00 in0.0 mm
06:20 PM 36.0°F2.2°C 31.0°F-0.6°C 82% 1.6 mph SW2.6 kmh SW 5.1 mph8.2 kmh 30.09 in1019.0 mb 0.00 in0.0 mm 0.00 in0.0 mm 0.00 in0.0 mm
06:30 PM 35.8°F2.1°C 30.8°F-0.7°C 82% 0.3 mph SSW0.5 kmh SSW 1.6 mph2.6 kmh 30.09 in1019.0 mb 0.00 in0.0 mm 0.00 in0.0 mm 0.00 in0.0 mm
06:40 PM 35.8°F2.1°C 31.1°F-0.5°C 83% Calm Calm -- 30.09 in1019.0 mb 0.00 in0.0 mm 0.00 in0.0 mm 0.00 in0.0 mm
06:50 PM 35.8°F2.1°C 31.4°F-0.3°C 84% 1.0 mph WNW1.6 kmh WNW 4.7 mph7.6 kmh 30.09 in1019.0 mb 0.00 in0.0 mm 0.00 in0.0 mm 0.00 in0.0 mm
07:00 PM 35.6°F2.0°C 31.5°F-0.3°C 85% 0.5 mph SSW0.8 kmh SSW 2.5 mph4.0 kmh 30.09 in1019.0 mb 0.00 in0.0 mm 0.00 in0.0 mm 0.00 in0.0 mm
07:10 PM 35.4°F1.9°C 31.1°F-0.5°C 84% Calm Calm -- 30.09 in1019.0 mb 0.00 in0.0 mm 0.00 in0.0 mm 0.00 in0.0 mm
07:20 PM 35.4°F1.9°C 31.4°F-0.3°C 85% Calm Calm -- 30.09 in1019.0 mb 0.00 in0.0 mm 0.00 in0.0 mm 0.00 in0.0 mm
07:30 PM 35.4°F1.9°C 31.6°F-0.2°C 86% Calm Calm -- 30.09 in1019.0 mb 0.00 in0.0 mm 0.00 in0.0 mm 0.00 in0.0 mm
07:40 PM 35.4°F1.9°C 31.6°F-0.2°C 86% Calm Calm -- 30.09 in1019.0 mb 0.00 in0.0 mm 0.00 in0.0 mm 0.00 in0.0 mm
07:50 PM 35.2°F1.8°C 31.5°F-0.3°C 86% Calm Calm -- 30.09 in1019.0 mb 0.00 in0.0 mm 0.00 in0.0 mm 0.00 in0.0 mm
08:00 PM 35.2°F1.8°C 31.5°F-0.3°C 86% Calm Calm -- 30.09 in1019.0 mb 0.00 in0.0 mm 0.00 in0.0 mm 0.00 in0.0 mm
08:10 PM 35.2°F1.8°C 31.5°F-0.3°C 86% Calm Calm -- 30.08 in1018.6 mb 0.00 in0.0 mm 0.00 in0.0 mm 0.00 in0.0 mm
08:20 PM 35.2°F1.8°C 31.5°F-0.3°C 86% 0.8 mph W1.3 kmh W 3.6 mph5.8 kmh 30.08 in1018.6 mb 0.00 in0.0 mm 0.00 in0.0 mm 0.00 in0.0 mm
08:30 PM 34.9°F1.6°C 31.1°F-0.5°C 86% Calm Calm -- 30.08 in1018.6 mb 0.00 in0.0 mm 0.00 in0.0 mm 0.00 in0.0 mm
08:40 PM 34.9°F1.6°C 31.1°F-0.5°C 86% Calm Calm -- 30.08 in1018.6 mb 0.00 in0.0 mm 0.00 in0.0 mm 0.00 in0.0 mm
08:50 PM 34.7°F1.5°C 30.9°F-0.6°C 86% Calm Calm -- 30.07 in1018.3 mb 0.00 in0.0 mm 0.00 in0.0 mm 0.00 in0.0 mm
09:00 PM 34.7°F1.5°C 30.9°F-0.6°C 86% 0.3 mph SSW0.5 kmh SSW 1.3 mph2.1 kmh 30.08 in1018.6 mb 0.00 in0.0 mm 0.00 in0.0 mm 0.00 in0.0 mm
09:10 PM 34.7°F1.5°C 31.2°F-0.4°C 87% Calm Calm -- 30.08 in1018.6 mb 0.00 in0.0 mm 0.00 in0.0 mm 0.00 in0.0 mm
09:20 PM 34.9°F1.6°C 31.4°F-0.3°C 87% 0.5 mph WNW0.8 kmh WNW 5.4 mph8.7 kmh 30.07 in1018.3 mb 0.00 in0.0 mm 0.00 in0.0 mm 0.00 in0.0 mm
09:30 PM 35.1°F1.7°C 31.6°F-0.2°C 87% 1.4 mph NW2.3 kmh NW 5.4 mph8.7 kmh 30.08 in1018.6 mb 0.00 in0.0 mm 0.00 in0.0 mm 0.00 in0.0 mm
09:40 PM 35.1°F1.7°C 31.6°F-0.2°C 87% Calm Calm -- 30.07 in1018.3 mb 0.00 in0.0 mm 0.00 in0.0 mm 0.00 in0.0 mm
09:50 PM 34.9°F1.6°C 31.1°F-0.5°C 86% Calm Calm -- 30.07 in1018.3 mb 0.00 in0.0 mm 0.00 in0.0 mm 0.00 in0.0 mm
10:00 PM 34.9°F1.6°C 31.4°F-0.3°C 87% Calm Calm -- 30.08 in1018.6 mb 0.00 in0.0 mm 0.00 in0.0 mm 0.00 in0.0 mm
10:10 PM 34.7°F1.5°C 31.2°F-0.4°C 87% Calm Calm -- 30.07 in1018.3 mb 0.00 in0.0 mm 0.00 in0.0 mm 0.00 in0.0 mm
10:20 PM 34.7°F1.5°C 31.5°F-0.3°C 88% Calm Calm -- 30.07 in1018.3 mb 0.00 in0.0 mm 0.00 in0.0 mm 0.00 in0.0 mm
10:30 PM 34.5°F1.4°C 31.3°F-0.4°C 88% Calm Calm -- 30.07 in1018.3 mb 0.00 in0.0 mm 0.00 in0.0 mm 0.00 in0.0 mm
10:40 PM 34.3°F1.3°C 31.2°F-0.4°C 88% Calm Calm -- 30.07 in1018.3 mb 0.00 in0.0 mm 0.00 in0.0 mm 0.00 in0.0 mm
10:50 PM 34.3°F1.3°C 31.4°F-0.3°C 89% Calm Calm -- 30.07 in1018.3 mb 0.00 in0.0 mm 0.00 in0.0 mm 0.00 in0.0 mm
11:00 PM 34.3°F1.3°C 31.4°F-0.3°C 89% Calm Calm -- 30.08 in1018.6 mb 0.00 in0.0 mm 0.00 in0.0 mm 0.00 in0.0 mm
11:10 PM 34.3°F1.3°C 31.4°F-0.3°C 89% Calm Calm -- 30.07 in1018.3 mb 0.00 in0.0 mm 0.00 in0.0 mm 0.00 in0.0 mm
11:20 PM 34.3°F1.3°C 31.4°F-0.3°C 89% Calm Calm -- 30.08 in1018.6 mb 0.00 in0.0 mm 0.00 in0.0 mm 0.00 in0.0 mm
11:30 PM 34.3°F1.3°C 31.4°F-0.3°C 89% Calm Calm -- 30.08 in1018.6 mb 0.00 in0.0 mm 0.00 in0.0 mm 0.00 in0.0 mm
11:40 PM 34.2°F1.2°C 31.3°F-0.4°C 89% Calm Calm -- 30.08 in1018.6 mb 0.00 in0.0 mm 0.00 in0.0 mm 0.00 in0.0 mm
11:50 PM 34.0°F1.1°C 31.1°F-0.5°C 89% Calm Calm -- 30.08 in1018.6 mb 0.00 in0.0 mm 0.00 in0.0 mm 0.00 in0.0 mm